Time;durP1;ratioP1;P1;durP2;ratioP2;P2;SDS_P1;SDS_P2;PMS_P1;PMS_P2;Temp;Humidity;BMP_temperature;BMP_pressure;BME280_temperature;BME280_humidity;BME280_pressure;Samples;Min_cycle;Max_cycle;Signal;HPM_P1;HPM_P2
2022/02/17 00:01:23;;;;;;;1999.90;999.90;;;;;;;14.54;72.84;97801.81;15590551;28;20402;-56
2022/02/17 00:09:13;;;;;;;1999.90;999.90;;;;;;;14.46;74.79;97784.31;15604917;28;20045;-56
2022/02/17 00:16:52;;;;;;;1999.90;999.90;;;;;;;14.35;76.03;97761.25;15588546;28;20041;-62
2022/02/17 00:24:29;;;;;;;1999.90;999.90;;;;;;;14.59;74.78;97768.44;15588403;28;20091;-59
2022/02/17 00:32:01;;;;;;;1999.90;999.90;;;;;;;14.60;75.65;97786.06;15587603;28;20573;-60
2022/02/17 00:39:36;;;;;;;1999.90;999.90;;;;;;;14.32;78.94;97754.50;15624070;28;20405;-57
2022/02/17 00:47:10;;;;;;;1999.90;999.90;;;;;;;13.80;84.36;97796.28;15574208;28;20096;-57
2022/02/17 00:54:44;;;;;;;1999.90;999.90;;;;;;;13.52;87.43;97759.06;15600465;28;20142;-61
2022/02/17 01:02:17;;;;;;;1999.90;999.90;;;;;;;13.38;88.17;97745.31;15600102;28;20061;-57
2022/02/17 01:09:50;;;;;;;1999.90;999.90;;;;;;;13.26;85.82;97737.50;15596617;28;20089;-59
2022/02/17 01:17:22;;;;;;;1999.90;999.90;;;;;;;12.92;88.59;97863.44;15581863;28;20479;-58
2022/02/17 01:24:56;;;;;;;1999.90;999.90;;;;;;;11.24;80.16;97895.50;15597929;28;20045;-57
2022/02/17 01:32:28;;;;;;;1999.90;999.90;;;;;;;9.99;82.94;97928.34;15581771;28;20126;-57
2022/02/17 01:40:01;;;;;;;1999.90;999.90;;;;;;;9.96;83.02;97917.22;15597009;28;20034;-54
2022/02/17 01:47:34;;;;;;;1999.90;999.90;;;;;;;9.89;82.19;97995.19;15596848;28;20045;-55
2022/02/17 01:55:09;;;;;;;1999.90;999.90;;;;;;;10.03;81.06;97984.09;15595822;28;20045;-56
2022/02/17 02:02:46;;;;;;;1999.90;999.90;;;;;;;10.16;78.23;97943.50;15595917;28;20212;-55
2022/02/17 02:10:26;;;;;;;1999.90;999.90;;;;;;;10.31;76.57;98009.22;15624015;22;20037;-60
2022/02/17 02:17:58;;;;;;;1999.90;999.90;;;;;;;10.56;75.57;97975.78;15681557;28;20047;-57
2022/02/17 02:25:33;;;;;;;1999.90;999.90;;;;;;;10.39;74.09;97923.63;15637796;28;20365;-57
2022/02/17 02:33:05;;;;;;;1999.90;999.90;;;;;;;10.53;73.58;97943.16;15624724;28;20045;-60
2022/02/17 02:40:40;;;;;;;1999.90;999.90;;;;;;;10.70;72.24;97933.94;15623071;28;20109;-58
2022/02/17 02:48:12;;;;;;;;;;;;;;;10.77;71.66;97957.44;15638542;28;20102;-61
2022/02/17 02:55:48;;;;;;;1999.90;999.90;;;;;;;10.80;70.60;97954.63;15612485;28;19924;-59
2022/02/17 03:03:22;;;;;;;1999.90;999.90;;;;;;;10.81;69.03;97919.97;15592121;28;20041;-61
2022/02/17 03:10:55;;;;;;;1999.90;999.90;;;;;;;10.97;66.90;97913.97;15610919;28;20532;-56
2022/02/17 03:18:46;;;;;;;1999.90;999.90;;;;;;;10.92;64.23;97925.53;15621546;28;20081;-57
2022/02/17 03:26:22;;;;;;;1999.90;999.90;;;;;;;11.18;62.95;97904.72;15632298;28;20752;-56
2022/02/17 03:34:02;;;;;;;1999.90;999.90;;;;;;;11.06;62.82;97894.00;15644679;28;20041;-61
2022/02/17 03:41:38;;;;;;;1999.90;999.90;;;;;;;11.30;62.61;97884.72;15604859;28;20041;-61
2022/02/17 03:49:17;;;;;;;1999.90;999.90;;;;;;;11.27;62.96;97844.47;15579735;28;20528;-60
2022/02/17 03:56:52;;;;;;;1999.90;999.90;;;;;;;11.50;63.22;97897.00;15613073;28;20433;-59
2022/02/17 04:04:44;;;;;;;1999.90;999.90;;;;;;;11.16;64.57;97901.56;15600801;28;20125;-57
2022/02/17 04:12:27;;;;;;;1999.90;999.90;;;;;;;11.43;65.39;97888.66;15621819;28;20314;-60
2022/02/17 04:20:02;;;;;;;1999.90;999.90;;;;;;;11.28;66.70;97901.88;15615459;28;20072;-57
2022/02/17 04:28:05;;;;;;;1999.90;999.90;;;;;;;11.25;66.42;97939.00;15512680;28;20045;-59
2022/02/17 04:35:38;;;;;;;1999.90;999.90;;;;;;;11.39;65.81;97940.13;15617388;28;20385;-59
2022/02/17 04:43:11;;;;;;;1999.90;999.90;;;;;;;11.64;63.32;97959.53;15621294;28;20056;-58
2022/02/17 04:50:45;;;;;;;1999.90;999.90;;;;;;;11.90;61.33;97966.63;15610436;28;20131;-55
2022/02/17 04:58:22;;;;;;;1999.90;999.90;;;;;;;11.81;60.42;97983.84;15601717;28;20148;-59
2022/02/17 05:05:56;;;;;;;1999.90;999.90;;;;;;;11.73;57.61;97997.00;15604345;28;20057;-61
2022/02/17 05:13:30;;;;;;;1999.90;999.90;;;;;;;12.13;56.60;98031.94;15599367;28;20045;-59
2022/02/17 05:21:03;;;;;;;1999.90;999.90;;;;;;;11.88;58.23;98031.31;15584865;28;20050;-60
2022/02/17 05:29:12;;;;;;;1999.90;999.90;;;;;;;11.88;58.15;98039.69;15574834;28;20065;-58
2022/02/17 05:37:13;;;;;;;1999.90;999.90;;;;;;;11.75;57.74;98033.69;15596913;28;20095;-60
2022/02/17 05:45:10;;;;;;;1999.90;999.90;;;;;;;11.36;51.34;98066.53;15597942;28;20045;-58
2022/02/17 05:52:43;;;;;;;1999.90;999.90;;;;;;;11.04;51.35;98083.31;15625163;28;20037;-58
2022/02/17 06:00:36;;;;;;;1999.90;999.90;;;;;;;10.98;52.05;98097.69;15598884;28;20060;-60
2022/02/17 06:08:08;;;;;;;1999.90;999.90;;;;;;;10.64;54.09;98100.06;15596076;28;20132;-58
2022/02/17 06:15:44;;;;;;;1999.90;999.90;;;;;;;10.61;55.69;98114.78;15593616;28;20064;-57
2022/02/17 06:23:17;;;;;;;1999.90;999.90;;;;;;;10.71;55.41;98124.38;15610235;28;20045;-60
2022/02/17 06:30:50;;;;;;;1073.03;505.80;;;;;;;10.38;55.33;98142.22;15591670;28;20120;-57
2022/02/17 06:38:22;;;;;;;1999.90;999.90;;;;;;;10.42;54.76;98143.06;15610035;28;20057;-60
2022/02/17 06:45:55;;;;;;;1999.90;999.90;;;;;;;10.28;53.86;98124.28;15591274;28;20107;-56
2022/02/17 06:53:28;;;;;;;1999.90;999.90;;;;;;;10.56;52.16;98156.22;15661826;28;20079;-55
2022/02/17 07:01:01;;;;;;;1999.90;999.90;;;;;;;10.78;51.99;98145.91;15687127;28;20033;-58
2022/02/17 07:08:33;;;;;;;1999.90;999.90;;;;;;;10.87;50.46;98171.41;15652624;28;20048;-61
2022/02/17 07:16:10;;;;;;;1999.90;999.90;;;;;;;10.94;50.10;98168.63;15652553;28;20049;-61
2022/02/17 07:23:42;;;;;;;1999.90;999.90;;;;;;;11.06;49.39;98195.34;15650806;28;20106;-61
2022/02/17 07:31:16;;;;;;;1999.90;999.90;;;;;;;11.63;49.18;98218.47;15660444;28;20115;-57
2022/02/17 07:38:48;;;;;;;1999.90;999.90;;;;;;;11.24;48.42;98208.09;15604544;28;20099;-60
2022/02/17 07:46:22;;;;;;;1999.90;999.90;;;;;;;11.51;46.49;98191.75;15605203;28;20041;-57
2022/02/17 07:53:54;;;;;;;1999.90;999.90;;;;;;;11.76;45.63;98253.19;15652617;28;20477;-61
2022/02/17 08:01:28;;;;;;;1999.90;999.90;;;;;;;11.64;46.11;98196.94;15664572;28;20389;-57
2022/02/17 08:09:03;;;;;;;1999.90;999.90;;;;;;;11.68;46.52;98232.06;15680160;28;20036;-58
2022/02/17 08:16:37;;;;;;;1999.90;999.90;;;;;;;11.80;45.88;98239.25;15684726;22;20041;-61
2022/02/17 08:24:10;;;;;;;1999.90;999.90;;;;;;;11.72;46.40;98274.72;15684497;28;20037;-60
2022/02/17 08:31:44;;;;;;;1999.90;999.90;;;;;;;11.55;46.00;98267.16;15698523;28;20043;-62
2022/02/17 08:39:16;;;;;;;1999.90;999.90;;;;;;;11.75;46.72;98256.38;15698686;28;20116;-61
2022/02/17 08:46:51;;;;;;;1999.90;999.90;;;;;;;11.79;46.67;98271.97;15689708;28;20250;-62
2022/02/17 08:54:23;;;;;;;1999.90;999.90;;;;;;;11.47;46.79;98288.72;15698702;28;20509;-59
2022/02/17 09:01:57;;;;;;;1999.90;999.90;;;;;;;12.77;45.08;98316.09;15748359;22;20041;-61
2022/02/17 09:09:29;;;;;;;1999.90;999.90;;;;;;;13.20;44.29;98335.50;15653576;28;20087;-61
2022/02/17 09:17:03;;;;;;;1999.90;999.90;;;;;;;12.48;45.42;98343.34;15682673;22;20049;-60
2022/02/17 09:24:35;;;;;;;1999.90;999.90;;;;;;;11.99;45.49;98347.00;15657159;28;20102;-61
2022/02/17 09:32:09;;;;;;;1999.90;999.90;;;;;;;12.27;45.65;98391.72;15673557;28;20099;-61
2022/02/17 09:39:44;;;;;;;1999.90;999.90;;;;;;;12.38;45.76;98414.06;15655932;28;20409;-59
2022/02/17 09:47:18;;;;;;;1999.90;999.90;;;;;;;12.09;47.60;98432.88;15656514;28;20064;-63
2022/02/17 09:54:51;;;;;;;1999.90;999.90;;;;;;;11.54;48.85;98470.22;15672841;28;20458;-62
2022/02/17 10:02:26;;;;;;;1999.90;999.90;;;;;;;11.46;49.45;98504.09;15653908;28;20160;-61
2022/02/17 10:10:04;;;;;;;1999.90;999.90;;;;;;;11.72;50.10;98506.59;15654791;28;20118;-59
2022/02/17 10:17:37;;;;;;;1999.90;999.90;;;;;;;11.36;51.22;98569.88;15673085;28;20114;-60
2022/02/17 10:25:09;;;;;;;1999.90;999.90;;;;;;;11.60;50.84;98599.13;15653848;28;20044;-59
2022/02/17 10:32:56;;;;;;;1999.90;999.90;;;;;;;11.72;50.73;98598.78;15667484;28;20527;-61
2022/02/17 10:40:31;;;;;;;1999.90;999.90;;;;;;;11.69;50.70;98651.84;15650796;28;20124;-61
2022/02/17 10:48:16;;;;;;;1999.90;999.90;;;;;;;12.08;49.45;98644.47;15646643;28;20128;-60
2022/02/17 10:55:55;;;;;;;1999.90;999.90;;;;;;;12.02;49.42;98642.47;15647016;28;20091;-61
2022/02/17 11:03:30;;;;;;;1999.90;999.90;;;;;;;11.50;50.07;98653.72;15632193;28;20049;-61
2022/02/17 11:11:04;;;;;;;1999.90;999.90;;;;;;;11.84;50.17;98701.03;15666903;28;20040;-59
2022/02/17 11:18:38;;;;;;;1999.90;999.90;;;;;;;11.97;50.32;98727.47;15665800;28;20087;-61
2022/02/17 11:26:20;;;;;;;1999.90;999.90;;;;;;;13.87;46.29;98743.53;15642483;28;20693;-60
2022/02/17 11:34:02;;;;;;;1999.90;999.90;;;;;;;12.49;48.48;98770.06;15627004;28;20067;-62
2022/02/17 11:41:36;;;;;;;1999.90;999.90;;;;;;;13.23;47.46;98785.53;15668312;28;20516;-60
2022/02/17 11:49:11;;;;;;;1999.90;999.90;;;;;;;12.28;48.83;98804.31;15648542;28;20115;-62
2022/02/17 11:56:45;;;;;;;1999.90;999.90;;;;;;;11.69;49.71;98806.28;15648514;28;20059;-61
2022/02/17 12:04:20;;;;;;;1999.90;999.90;;;;;;;11.76;50.02;98853.03;15666731;28;20076;-62
2022/02/17 12:11:53;;;;;;;1999.90;999.90;;;;;;;11.76;50.77;98858.63;15665768;28;20052;-62
2022/02/17 12:19:28;;;;;;;1999.90;999.90;;;;;;;11.57;52.51;98885.59;15657282;28;20458;-60
2022/02/17 12:27:02;;;;;;;1999.90;999.90;;;;;;;11.61;53.16;98887.63;15661372;28;20378;-63
2022/02/17 12:34:41;;;;;;;1999.90;999.90;;;;;;;11.32;53.77;98925.59;15663057;28;20051;-59
2022/02/17 12:42:14;;;;;;;1999.90;999.90;;;;;;;11.18;54.33;98968.13;15646155;28;20051;-58
2022/02/17 12:49:48;;;;;;;1999.90;999.90;;;;;;;11.05;54.96;98989.09;15660721;28;20045;-61
2022/02/17 12:57:20;;;;;;;1999.90;999.90;;;;;;;10.74;55.35;99030.09;15631098;28;20049;-62
2022/02/17 13:04:54;;;;;;;1999.90;999.90;;;;;;;11.81;53.03;99031.56;15631052;28;20452;-61
2022/02/17 13:12:34;;;;;;;1999.90;999.90;;;;;;;11.24;54.07;99058.72;15664768;28;20057;-62
2022/02/17 13:20:27;;;;;;;1999.90;999.90;;;;;;;10.78;54.29;99075.59;15643400;28;20461;-62
2022/02/17 13:28:11;;;;;;;1999.90;999.90;;;;;;;12.90;50.85;99095.31;15662945;28;20044;-59
2022/02/17 13:35:48;;;;;;;1999.90;999.90;;;;;;;11.02;54.74;99107.03;15654483;28;20124;-60
2022/02/17 13:43:21;;;;;;;1999.90;999.90;;;;;;;9.89;60.47;99157.53;15627912;28;20045;-62
2022/02/17 13:51:15;;;;;;;1999.90;999.90;;;;;;;9.10;64.94;99188.38;15641126;28;20041;-63
2022/02/17 13:58:58;;;;;;;1999.90;999.90;;;;;;;9.17;67.63;99187.72;15668848;28;20456;-62
2022/02/17 14:06:31;;;;;;;1999.90;999.90;;;;;;;9.33;65.52;99182.13;15656247;28;20378;-62
2022/02/17 14:14:03;;;;;;;;;;;;;;;9.62;61.70;99172.47;15666803;28;20045;-62
2022/02/17 14:21:38;;;;;;;1999.90;999.90;;;;;;;9.84;59.37;99178.13;15674184;28;19927;-60
2022/02/17 14:29:10;;;;;;;1999.90;999.90;;;;;;;10.18;56.59;99214.66;15654742;28;20458;-62
2022/02/17 14:36:44;;;;;;;1999.90;999.90;;;;;;;10.12;56.05;99227.28;15658588;28;20482;-60
2022/02/17 14:44:17;;;;;;;;;;;;;;;10.55;55.44;99215.06;15657464;28;20099;-62
2022/02/17 14:51:52;;;;;;;1999.90;999.90;;;;;;;10.59;53.97;99235.44;15671133;28;19986;-59
2022/02/17 14:59:31;;;;;;;1999.90;999.90;;;;;;;10.97;53.00;99251.31;15668887;28;20391;-60
2022/02/17 15:07:04;;;;;;;1999.90;999.90;;;;;;;10.28;53.93;99258.72;15649554;28;20091;-63
2022/02/17 15:14:38;;;;;;;1999.90;999.90;;;;;;;10.11;53.65;99290.59;15661914;22;20226;-61
2022/02/17 15:22:11;;;;;;;1999.90;999.90;;;;;;;10.13;53.49;99312.50;15629289;28;20088;-62
2022/02/17 15:29:47;;;;;;;1999.90;999.90;;;;;;;9.45;55.74;99322.03;15673377;28;20052;-62
2022/02/17 15:37:22;;;;;;;1999.90;999.90;;;;;;;9.75;56.73;99341.88;15689285;28;20048;-57
2022/02/17 15:44:55;;;;;;;1999.90;999.90;;;;;;;9.55;56.35;99379.97;15633825;28;20101;-62
2022/02/17 15:52:32;;;;;;;1999.90;999.90;;;;;;;8.08;68.27;99415.81;15695894;28;20066;-60
2022/02/17 16:00:08;;;;;;;1999.90;999.90;;;;;;;7.90;70.12;99417.19;15671344;28;20372;-59
2022/02/17 16:07:48;;;;;;;1999.90;999.90;;;;;;;7.86;70.06;99421.03;15663518;28;20048;-58
2022/02/17 16:15:26;;;;;;;1999.90;999.90;;;;;;;8.12;68.26;99432.59;15639392;28;20045;-62
2022/02/17 16:22:59;;;;;;;1999.90;999.90;;;;;;;8.41;64.78;99441.88;15650278;28;20111;-62
2022/02/17 16:30:32;;;;;;;;;;;;;;;8.92;62.46;99460.53;15650809;28;20075;-63
2022/02/17 16:38:06;;;;;;;1999.90;999.90;;;;;;;8.47;60.99;99482.19;15641314;28;19944;-59
2022/02/17 16:45:38;;;;;;;1999.90;999.90;;;;;;;8.45;60.70;99502.00;15660840;28;20298;-61
2022/02/17 16:53:13;;;;;;;1999.90;999.90;;;;;;;8.38;60.88;99512.88;15662140;28;20045;-63
2022/02/17 17:00:46;;;;;;;1999.90;999.90;;;;;;;8.44;59.72;99511.50;15654036;28;20098;-62
2022/02/17 17:08:20;;;;;;;1999.90;999.90;;;;;;;8.73;57.64;99534.63;15666151;28;20044;-59
2022/02/17 17:15:52;;;;;;;1999.90;999.90;;;;;;;8.37;60.38;99550.97;15644109;28;20081;-63
2022/02/17 17:23:25;;;;;;;1999.90;999.90;;;;;;;8.30;60.40;99566.56;15658863;28;20065;-62
2022/02/17 17:30:58;;;;;;;1999.90;999.90;;;;;;;8.45;59.72;99593.72;15645312;28;20448;-62
2022/02/17 17:38:32;;;;;;;1999.90;999.90;;;;;;;8.26;61.89;99616.47;15633728;28;20160;-62
2022/02/17 17:46:05;;;;;;;1999.90;999.90;;;;;;;8.20;60.78;99644.81;15656743;28;20065;-63
2022/02/17 17:53:38;;;;;;;1999.90;999.90;;;;;;;8.54;58.86;99641.66;15620686;28;20457;-63
2022/02/17 18:01:10;;;;;;;1999.90;999.90;;;;;;;8.58;58.71;99673.19;15674656;28;20075;-62
2022/02/17 18:08:44;;;;;;;1999.90;999.90;;;;;;;8.45;59.58;99688.25;15675338;28;20106;-62
2022/02/17 18:16:16;;;;;;;1999.90;999.90;;;;;;;8.37;59.83;99675.25;15667301;28;20128;-63
2022/02/17 18:24:01;;;;;;;1999.90;999.90;;;;;;;8.33;59.80;99688.16;15673779;28;20067;-63
2022/02/17 18:31:33;;;;;;;1999.90;999.90;;;;;;;8.15;60.91;99690.31;15670745;28;20587;-63
2022/02/17 18:39:07;;;;;;;1999.90;999.90;;;;;;;8.12;61.73;99688.19;15639478;28;20067;-62
2022/02/17 18:46:39;;;;;;;;;;;;;;;8.00;61.21;99722.31;15636977;28;20044;-62
2022/02/17 18:54:12;;;;;;;1999.90;999.90;;;;;;;8.03;61.35;99726.38;15637771;28;19921;-62
2022/02/17 19:01:44;;;;;;;1999.90;999.90;;;;;;;7.87;61.74;99742.03;15657751;28;20085;-63
2022/02/17 19:09:18;;;;;;;1999.90;999.90;;;;;;;8.06;61.19;99762.63;15666752;28;20048;-63
2022/02/17 19:16:50;;;;;;;1999.90;999.90;;;;;;;8.23;60.83;99752.50;15653919;28;20045;-62
2022/02/17 19:24:25;;;;;;;1999.90;999.90;;;;;;;8.28;60.23;99758.69;15648788;28;20048;-62
2022/02/17 19:31:59;;;;;;;1999.90;999.90;;;;;;;8.24;59.49;99776.38;15648389;28;20533;-62
2022/02/17 19:39:32;;;;;;;1999.90;999.90;;;;;;;8.42;58.80;99777.88;15680150;28;20253;-62
2022/02/17 19:47:05;;;;;;;1999.90;999.90;;;;;;;8.29;59.16;99815.06;15629497;28;20045;-61
2022/02/17 19:54:41;;;;;;;1999.90;999.90;;;;;;;8.15;59.50;99787.56;15647509;28;20041;-61
2022/02/17 20:02:13;;;;;;;1999.90;999.90;;;;;;;7.91;59.89;99826.28;15626090;28;20527;-64
2022/02/17 20:09:55;;;;;;;1999.90;999.90;;;;;;;8.01;59.42;99834.22;15654133;28;20481;-62
2022/02/17 20:17:27;;;;;;;1999.90;999.90;;;;;;;8.08;57.99;99849.22;15653009;28;20048;-63
2022/02/17 20:25:01;;;;;;;1999.90;999.90;;;;;;;8.17;57.99;99856.69;15659816;28;20047;-63
2022/02/17 20:32:33;;;;;;;1999.90;999.90;;;;;;;8.17;57.50;99867.81;15639852;28;20060;-61
2022/02/17 20:40:09;;;;;;;1999.90;999.90;;;;;;;8.44;57.00;99869.25;15648838;28;20079;-63
2022/02/17 20:56:24;;;;;;;1999.90;999.90;;;;;;;8.23;56.57;99891.44;15650592;28;20053;-63
2022/02/17 21:03:25;;;;;;;1999.90;999.90;;;;;;;7.88;57.22;99907.53;15626742;28;20045;-61
2022/02/17 21:11:01;;;;;;;1999.90;999.90;;;;;;;7.91;57.76;99937.41;15609210;28;20049;-64
2022/02/17 21:18:37;;;;;;;1999.90;999.90;;;;;;;7.71;58.52;99956.47;15678471;22;20076;-62
2022/02/17 21:26:14;;;;;;;1999.90;999.90;;;;;;;7.71;58.66;99958.41;15679655;28;20049;-60
2022/02/17 21:33:48;;;;;;;1999.90;999.90;;;;;;;7.43;59.20;99983.81;15661297;28;20044;-61
2022/02/17 21:41:24;;;;;;;1999.90;999.90;;;;;;;7.72;58.70;99969.19;15659904;28;20053;-61
2022/02/17 21:48:58;;;;;;;1999.90;999.90;;;;;;;7.67;59.02;99996.31;15644061;28;20136;-61
2022/02/17 21:56:31;;;;;;;1999.90;999.90;;;;;;;7.55;59.50;100010.06;15658695;28;20374;-62
2022/02/17 22:04:06;;;;;;;1999.90;999.90;;;;;;;7.59;58.96;100030.47;15675435;28;20037;-61
2022/02/17 22:11:39;;;;;;;1999.90;999.90;;;;;;;7.60;58.73;100041.22;15676526;28;20072;-61
2022/02/17 22:19:11;;;;;;;1999.90;999.90;;;;;;;7.76;58.06;100041.53;15676905;28;20102;-61
2022/02/17 22:26:45;;;;;;;1999.90;999.90;;;;;;;7.99;57.42;100042.13;15679922;28;20055;-60
2022/02/17 22:34:19;;;;;;;1999.90;999.90;;;;;;;7.60;57.71;100038.47;15678208;28;20434;-62
2022/02/17 22:41:52;;;;;;;1999.90;999.90;;;;;;;7.67;57.36;100033.22;15659839;28;20052;-62
2022/02/17 22:49:26;;;;;;;1999.90;999.90;;;;;;;7.57;57.56;100055.78;15677936;28;20144;-61
2022/02/17 22:57:03;;;;;;;1999.90;999.90;;;;;;;7.78;57.06;100064.25;15658975;28;20061;-62
2022/02/17 23:04:35;;;;;;;1999.90;999.90;;;;;;;7.78;56.81;100069.78;15640844;28;20094;-59
2022/02/17 23:12:09;;;;;;;1999.90;999.90;;;;;;;7.74;56.94;100086.31;15672381;28;20037;-61
2022/02/17 23:19:41;;;;;;;1999.90;999.90;;;;;;;7.65;56.44;100095.81;15674777;28;20048;-62
2022/02/17 23:27:14;;;;;;;1999.90;999.90;;;;;;;7.79;55.61;100090.88;15628407;28;20114;-61
2022/02/17 23:34:47;;;;;;;1999.90;999.90;;;;;;;7.63;55.07;100098.09;15639734;28;20045;-60
2022/02/17 23:42:22;;;;;;;1999.90;999.90;;;;;;;7.62;54.62;100096.47;15639579;28;20128;-61
2022/02/17 23:49:54;;;;;;;1999.90;999.90;;;;;;;7.55;54.50;100102.50;15671953;28;20060;-61
2022/02/17 23:57:29;;;;;;;1999.90;999.90;;;;;;;7.45;54.85;100109.19;15637144;28;20049;-59
